Time;durP1;ratioP1;P1;durP2;ratioP2;P2;SDS_P1;SDS_P2;PMS_P1;PMS_P2;Temp;Humidity;BMP_temperature;BMP_pressure;BME280_temperature;BME280_humidity;BME280_pressure;Samples;Min_cycle;Max_cycle;Signal;HPM_P1;HPM_P2
2023/07/12 00:00:24;;;;;;;1.00;1.00;;;18.90;99.90;;;;;;5036095;28;20181;-70
2023/07/12 00:02:49;;;;;;;0.60;0.60;;;18.90;99.90;;;;;;5036341;28;20202;-70
2023/07/12 00:05:16;;;;;;;2.43;1.27;;;18.90;99.90;;;;;;5036190;28;20421;-70
2023/07/12 00:07:45;;;;;;;0.70;0.70;;;19.00;99.90;;;;;;5036109;28;20261;-70
2023/07/12 00:10:23;;;;;;;1.50;1.03;;;19.00;99.90;;;;;;5036267;28;20417;-70
2023/07/12 00:12:49;;;;;;;0.93;0.93;;;19.00;99.90;;;;;;5036073;28;20786;-70
2023/07/12 00:15:28;;;;;;;0.83;0.77;;;19.10;99.90;;;;;;5018224;28;20462;-70
2023/07/12 00:17:54;;;;;;;1.57;1.47;;;19.10;99.90;;;;;;5036113;28;20433;-70
2023/07/12 00:20:26;;;;;;;1.90;1.80;;;19.10;99.90;;;;;;5036046;28;20458;-70
2023/07/12 00:22:51;;;;;;;0.83;0.83;;;19.10;99.90;;;;;;5035723;28;20791;-70
2023/07/12 00:25:19;;;;;;;2.10;1.03;;;19.10;99.90;;;;;;5035750;28;20407;-70
2023/07/12 00:27:45;;;;;;;0.60;0.60;;;19.00;99.90;;;;;;5035892;28;20219;-70
2023/07/12 00:30:20;;;;;;;1.00;1.00;;;18.90;99.90;;;;;;5035584;28;20413;-70
2023/07/12 00:32:51;;;;;;;1.63;1.53;;;18.90;99.90;;;;;;5035734;28;20440;-70
2023/07/12 00:35:23;;;;;;;0.50;0.50;;;18.90;99.90;;;;;;5035698;28;20477;-70
2023/07/12 00:37:52;;;;;;;0.70;0.70;;;18.90;99.90;;;;;;5035686;28;20405;-70
2023/07/12 00:40:35;;;;;;;0.60;0.60;;;18.80;99.90;;;;;;5035735;28;20763;-70
2023/07/12 00:43:47;;;;;;;0.70;0.70;;;18.70;99.90;;;;;;5035345;28;20923;-70
2023/07/12 00:46:45;;;;;;;0.87;0.87;;;18.60;99.90;;;;;;5035379;28;20908;-70
2023/07/12 00:49:11;;;;;;;1.47;1.40;;;18.50;99.90;;;;;;5034859;28;20942;-69
2023/07/12 00:51:43;;;;;;;1.20;1.20;;;18.60;99.90;;;;;;5035386;28;20479;-70
2023/07/12 00:54:18;;;;;;;0.70;0.70;;;18.60;99.90;;;;;;5035206;28;20184;-70
2023/07/12 00:56:44;;;;;;;0.60;0.60;;;18.60;99.90;;;;;;5035115;28;20464;-69
2023/07/12 00:59:14;;;;;;;1.13;0.80;;;18.60;99.90;;;;;;5035383;28;20397;-70
2023/07/12 01:01:40;;;;;;;0.80;0.80;;;18.60;99.90;;;;;;5035249;28;20501;-70
2023/07/12 01:04:07;;;;;;;2.13;1.37;;;18.60;99.90;;;;;;5035127;28;20417;-70
2023/07/12 01:06:33;;;;;;;0.60;0.60;;;18.70;99.90;;;;;;5034922;28;20586;-70
2023/07/12 01:09:08;;;;;;;0.60;0.60;;;18.70;99.90;;;;;;5035075;28;20448;-70
2023/07/12 01:11:34;;;;;;;1.47;1.37;;;18.60;99.90;;;;;;5035246;28;20504;-70
2023/07/12 01:14:00;;;;;;;1.03;0.77;;;18.60;99.90;;;;;;5034997;28;20410;-69
2023/07/12 01:16:25;;;;;;;1.17;1.07;;;18.70;99.90;;;;;;5034610;28;20465;-70
2023/07/12 01:18:51;;;;;;;0.60;0.60;;;18.70;99.90;;;;;;5035245;28;20616;-70
2023/07/12 01:21:20;;;;;;;0.90;0.80;;;18.80;99.90;;;;;;5034629;28;20655;-70
2023/07/12 01:23:47;;;;;;;1.80;0.73;;;18.80;99.90;;;;;;5034579;28;20168;-70
2023/07/12 01:26:35;;;;;;;1.00;1.00;;;18.70;99.90;;;;;;5034549;28;20410;-70
2023/07/12 01:29:03;;;;;;;0.60;0.60;;;18.70;99.90;;;;;;5034750;28;20414;-70
2023/07/12 01:31:30;;;;;;;1.50;1.37;;;18.60;99.90;;;;;;5034442;28;20793;-69
2023/07/12 01:33:56;;;;;;;0.70;0.70;;;18.60;99.90;;;;;;5034480;28;20412;-69
2023/07/12 01:36:23;;;;;;;1.13;1.10;;;18.50;99.90;;;;;;5034260;28;20453;-69
2023/07/12 01:38:50;;;;;;;1.80;0.97;;;18.40;99.90;;;;;;5034477;28;20406;-70
2023/07/12 01:41:16;;;;;;;1.40;1.30;;;18.30;99.90;;;;;;5034364;28;20406;-70
2023/07/12 01:43:42;;;;;;;1.10;1.10;;;18.30;99.90;;;;;;5034495;28;20452;-70
2023/07/12 01:46:08;;;;;;;1.87;1.77;;;18.30;99.90;;;;;;5034087;28;20177;-70
2023/07/12 01:48:33;;;;;;;2.20;2.07;;;18.20;99.90;;;;;;5034726;28;20202;-70
2023/07/12 01:51:00;;;;;;;1.43;0.73;;;18.20;99.90;;;;;;5034096;28;20182;-70
2023/07/12 01:53:26;;;;;;;1.00;1.00;;;18.20;99.90;;;;;;5033886;28;20510;-70
2023/07/12 01:55:52;;;;;;;1.33;1.23;;;18.20;99.90;;;;;;5033933;28;20462;-70
2023/07/12 01:58:17;;;;;;;1.23;1.23;;;18.20;99.90;;;;;;5034196;28;20488;-70
2023/07/12 02:00:43;;;;;;;0.70;0.70;;;18.10;99.90;;;;;;5034028;28;20563;-70
2023/07/12 02:03:09;;;;;;;1.33;1.33;;;18.10;99.90;;;;;;5033773;28;20202;-70
2023/07/12 02:05:35;;;;;;;1.40;1.03;;;18.10;99.90;;;;;;5033750;28;20179;-70
2023/07/12 02:08:00;;;;;;;0.60;0.60;;;18.20;99.90;;;;;;5034101;28;20818;-70
2023/07/12 02:10:26;;;;;;;0.70;0.70;;;18.20;99.90;;;;;;5033936;28;20174;-70
2023/07/12 02:12:52;;;;;;;0.80;0.80;;;18.30;99.90;;;;;;5033893;28;20422;-70
2023/07/12 02:15:19;;;;;;;0.87;0.80;;;18.30;99.90;;;;;;5033785;28;20196;-70
2023/07/12 02:17:45;;;;;;;0.60;0.60;;;18.30;99.90;;;;;;5033630;28;20436;-70
2023/07/12 02:20:12;;;;;;;1.40;1.30;;;18.30;99.90;;;;;;5033906;28;20434;-70
2023/07/12 02:22:43;;;;;;;1.40;1.30;;;18.40;99.90;;;;;;5033604;28;20187;-69
2023/07/12 02:25:10;;;;;;;1.33;1.10;;;18.50;99.90;;;;;;5033736;28;20411;-70
2023/07/12 02:27:36;;;;;;;1.07;1.07;;;18.60;99.90;;;;;;5033406;28;20412;-70
2023/07/12 02:30:02;;;;;;;2.83;0.90;;;18.70;99.90;;;;;;5033646;28;20892;-70
2023/07/12 02:32:28;;;;;;;0.80;0.80;;;18.70;99.90;;;;;;5033853;28;20199;-70
2023/07/12 02:34:54;;;;;;;0.80;0.80;;;18.70;99.90;;;;;;5033388;28;20202;-70
2023/07/12 02:37:19;;;;;;;0.93;0.87;;;18.70;99.90;;;;;;5033428;28;20511;-71
2023/07/12 02:39:46;;;;;;;1.20;1.10;;;18.70;99.90;;;;;;5033683;28;20744;-70
2023/07/12 02:42:12;;;;;;;0.83;0.83;;;18.60;99.90;;;;;;5033352;28;20665;-70
2023/07/12 02:44:41;;;;;;;0.77;0.77;;;18.70;99.90;;;;;;5033045;28;20415;-70
2023/07/12 02:47:09;;;;;;;2.60;1.70;;;18.80;99.90;;;;;;5033204;28;20409;-70
2023/07/12 02:49:36;;;;;;;0.70;0.70;;;18.80;99.90;;;;;;5033524;28;20404;-70
2023/07/12 02:52:03;;;;;;;0.80;0.80;;;18.90;99.90;;;;;;5033230;28;20434;-70
2023/07/12 02:54:29;;;;;;;1.00;1.00;;;18.90;99.90;;;;;;5033273;28;20747;-70
2023/07/12 02:56:54;;;;;;;1.10;1.00;;;18.90;99.90;;;;;;5032716;28;20469;-70
2023/07/12 02:59:20;;;;;;;1.07;0.70;;;18.90;99.90;;;;;;5033598;28;20257;-70
2023/07/12 03:01:49;;;;;;;3.50;2.30;;;18.90;99.90;;;;;;5033056;28;20216;-70
2023/07/12 03:04:14;;;;;;;1.50;1.30;;;18.90;99.90;;;;;;5034034;28;20228;-70
2023/07/12 03:06:40;;;;;;;1.97;1.87;;;19.00;99.90;;;;;;5037441;28;20412;-70
2023/07/12 03:09:06;;;;;;;0.97;0.97;;;19.00;99.90;;;;;;5037619;28;20257;-70
2023/07/12 03:11:32;;;;;;;1.83;1.73;;;19.00;99.90;;;;;;5037214;28;20199;-70
2023/07/12 03:13:58;;;;;;;0.50;0.50;;;18.90;99.90;;;;;;5037568;28;20185;-70
2023/07/12 03:16:24;;;;;;;0.97;0.93;;;18.80;99.90;;;;;;5037173;28;20463;-70
2023/07/12 03:18:51;;;;;;;1.90;1.03;;;18.80;99.90;;;;;;5019398;28;20458;-70
2023/07/12 03:21:16;;;;;;;1.20;1.10;;;19.00;99.90;;;;;;5036815;28;20632;-70
2023/07/12 03:23:42;;;;;;;3.07;2.87;;;18.90;99.90;;;;;;5036790;28;20494;-70
2023/07/12 03:26:08;;;;;;;0.80;0.80;;;19.00;99.90;;;;;;5036808;28;20181;-70
2023/07/12 03:28:34;;;;;;;1.63;1.50;;;19.10;99.90;;;;;;5037225;28;20521;-70
2023/07/12 03:31:06;;;;;;;0.90;0.90;;;18.70;99.90;;;;;;5037055;28;20539;-70
2023/07/12 03:33:32;;;;;;;1.43;1.33;;;18.90;99.90;;;;;;5037095;28;20426;-70
2023/07/12 03:35:58;;;;;;;1.23;1.17;;;18.90;99.90;;;;;;5036874;28;20457;-70
2023/07/12 03:38:28;;;;;;;1.13;1.13;;;18.90;99.90;;;;;;5036869;28;20867;-70
2023/07/12 03:40:59;;;;;;;1.27;1.20;;;18.90;99.90;;;;;;5036367;28;20457;-70
2023/07/12 03:43:25;;;;;;;3.57;2.33;;;18.90;99.90;;;;;;5036692;28;20833;-70
2023/07/12 03:45:52;;;;;;;14.30;2.10;;;19.00;99.90;;;;;;5036280;28;20469;-70
2023/07/12 03:48:18;;;;;;;1.13;1.10;;;19.20;99.90;;;;;;5036615;28;20413;-70
2023/07/12 03:50:47;;;;;;;0.73;0.70;;;19.20;99.90;;;;;;5018602;28;20510;-70
2023/07/12 03:53:13;;;;;;;0.90;0.80;;;19.20;99.90;;;;;;5036287;28;20209;-70
2023/07/12 03:55:40;;;;;;;1.70;1.60;;;19.20;99.90;;;;;;5036085;28;20459;-70
2023/07/12 03:58:07;;;;;;;0.63;0.63;;;19.30;99.90;;;;;;5036454;28;20220;-70
2023/07/12 04:00:32;;;;;;;1.30;1.20;;;19.40;99.90;;;;;;5036166;28;20429;-70
2023/07/12 04:02:58;;;;;;;0.80;0.80;;;19.50;99.90;;;;;;5036156;28;20433;-70
2023/07/12 04:05:24;;;;;;;1.00;0.90;;;19.60;99.90;;;;;;5036424;28;20178;-70
2023/07/12 04:07:51;;;;;;;1.57;1.47;;;19.60;99.90;;;;;;5036376;28;20623;-70
2023/07/12 04:10:17;;;;;;;1.17;1.17;;;19.50;99.90;;;;;;5036183;28;20196;-70
2023/07/12 04:12:42;;;;;;;1.00;1.00;;;19.50;99.90;;;;;;5036072;28;20444;-70
2023/07/12 04:15:08;;;;;;;2.00;1.90;;;19.40;99.90;;;;;;5036068;28;20201;-70
2023/07/12 04:17:35;;;;;;;6.17;2.80;;;19.50;99.90;;;;;;5035311;28;20181;-70
2023/07/12 04:20:01;;;;;;;2.40;1.63;;;19.50;99.90;;;;;;5036135;28;20248;-70
2023/07/12 04:22:26;;;;;;;0.87;0.87;;;19.50;99.90;;;;;;5034844;28;20489;-70
2023/07/12 04:24:53;;;;;;;1.40;1.30;;;19.40;99.90;;;;;;5035088;28;20412;-70
2023/07/12 04:27:19;;;;;;;1.00;1.00;;;19.40;99.90;;;;;;5035166;28;20239;-70
2023/07/12 04:29:45;;;;;;;1.23;1.17;;;19.40;99.90;;;;;;5035433;28;20420;-70
2023/07/12 04:32:11;;;;;;;6.27;1.77;;;19.40;99.90;;;;;;5035671;28;20527;-70
2023/07/12 04:34:37;;;;;;;1.90;1.07;;;19.50;99.90;;;;;;5035590;28;20448;-70
2023/07/12 04:37:03;;;;;;;2.00;1.43;;;19.50;99.90;;;;;;5035396;28;20462;-70
2023/07/12 04:39:28;;;;;;;2.10;1.90;;;19.50;99.90;;;;;;5035645;28;20528;-70
2023/07/12 04:41:54;;;;;;;1.90;1.80;;;19.50;99.90;;;;;;5035400;28;20430;-70
2023/07/12 04:44:19;;;;;;;1.60;1.50;;;19.50;99.90;;;;;;5035542;28;20171;-70
2023/07/12 04:46:45;;;;;;;0.80;0.80;;;19.60;99.90;;;;;;5035434;28;20175;-70
2023/07/12 04:49:11;;;;;;;2.03;1.93;;;19.60;99.90;;;;;;5035366;28;20257;-70
2023/07/12 04:51:37;;;;;;;1.63;1.53;;;19.60;99.90;;;;;;5035302;28;20654;-70
2023/07/12 04:54:02;;;;;;;2.43;2.23;;;19.60;99.90;;;;;;5035004;28;20689;-70
2023/07/12 04:56:28;;;;;;;1.50;1.40;;;19.60;99.90;;;;;;5035177;28;20506;-69
2023/07/12 04:58:54;;;;;;;1.10;1.10;;;19.70;99.90;;;;;;5035474;28;20194;-70
2023/07/12 05:01:21;;;;;;;3.23;2.10;;;19.70;99.90;;;;;;5034696;28;20503;-70
2023/07/12 05:03:47;;;;;;;2.00;1.90;;;19.70;99.90;;;;;;5034027;28;20175;-70
2023/07/12 05:06:13;;;;;;;1.33;1.23;;;19.60;99.90;;;;;;5033536;28;20441;-70
2023/07/12 05:08:39;;;;;;;1.50;1.50;;;19.60;99.90;;;;;;5035338;28;20421;-70
2023/07/12 05:11:05;;;;;;;2.33;2.23;;;19.70;99.90;;;;;;5034953;28;20421;-71
2023/07/12 05:13:30;;;;;;;1.13;1.07;;;19.70;99.90;;;;;;5035005;28;20175;-70
2023/07/12 05:15:56;;;;;;;2.67;2.43;;;19.80;99.90;;;;;;5034752;28;20257;-70
2023/07/12 05:18:22;;;;;;;0.77;0.63;;;19.80;99.90;;;;;;5035071;28;20164;-70
2023/07/12 05:20:49;;;;;;;1.13;1.00;;;19.80;99.90;;;;;;5034830;28;20307;-71
2023/07/12 05:23:15;;;;;;;1.60;1.50;;;19.80;99.90;;;;;;5034693;28;20436;-70
2023/07/12 05:25:52;;;;;;;1.73;1.63;;;19.80;99.90;;;;;;5034533;28;20785;-70
2023/07/12 05:28:18;;;;;;;0.80;0.80;;;19.80;99.90;;;;;;5033921;28;20185;-70
2023/07/12 05:30:43;;;;;;;1.23;1.13;;;19.80;99.90;;;;;;5034749;28;20420;-70
2023/07/12 05:33:09;;;;;;;1.17;1.07;;;19.80;99.90;;;;;;5034728;28;20205;-70
2023/07/12 05:35:38;;;;;;;2.07;1.97;;;19.80;99.90;;;;;;5034864;28;20220;-71
2023/07/12 05:38:04;;;;;;;1.10;0.80;;;19.90;99.90;;;;;;5034859;28;20179;-70
2023/07/12 05:40:30;;;;;;;1.57;1.23;;;19.90;99.90;;;;;;5034566;28;20406;-70
2023/07/12 05:42:56;;;;;;;1.07;0.97;;;19.90;99.90;;;;;;5034516;28;20758;-70
2023/07/12 05:45:23;;;;;;;0.90;0.90;;;19.90;99.90;;;;;;5034109;28;20772;-70
2023/07/12 05:47:49;;;;;;;13.13;1.70;;;19.90;99.90;;;;;;5034503;28;20405;-70
2023/07/12 05:50:18;;;;;;;1.10;1.10;;;19.90;99.90;;;;;;5034452;28;20412;-70
2023/07/12 05:52:44;;;;;;;0.77;0.77;;;20.00;99.90;;;;;;5034168;28;20863;-70
2023/07/12 05:55:14;;;;;;;0.87;0.77;;;20.00;99.90;;;;;;5034233;28;20460;-70
2023/07/12 05:57:39;;;;;;;1.60;1.50;;;20.10;99.90;;;;;;5033438;28;20812;-70
2023/07/12 06:00:08;;;;;;;5.03;2.53;;;20.30;99.90;;;;;;5032938;28;20413;-71
2023/07/12 06:02:33;;;;;;;6.80;2.33;;;20.30;99.90;;;;;;5034074;28;20219;-70
2023/07/12 06:04:59;;;;;;;1.33;1.00;;;20.50;99.90;;;;;;5033747;28;20887;-70
2023/07/12 06:07:25;;;;;;;0.90;0.90;;;20.70;99.90;;;;;;5034047;28;20591;-70
2023/07/12 06:15:48;;;;;;;0.80;0.80;;;21.30;99.90;;;;;;5033061;28;20485;-68
2023/07/12 06:18:13;;;;;;;15.63;1.77;;;21.30;99.90;;;;;;5034084;28;20796;-69
2023/07/12 06:20:39;;;;;;;1.40;1.40;;;21.40;99.90;;;;;;5034172;28;20178;-68
2023/07/12 06:23:05;;;;;;;1.63;1.53;;;21.40;99.90;;;;;;5033891;28;20254;-68
2023/07/12 06:25:31;;;;;;;1.80;1.70;;;21.40;99.90;;;;;;5034011;28;20543;-69
2023/07/12 06:27:56;;;;;;;2.83;2.63;;;21.50;99.90;;;;;;5033539;28;20561;-68
2023/07/12 06:30:22;;;;;;;1.67;1.57;;;21.50;99.90;;;;;;5033560;28;20412;-69
2023/07/12 06:32:48;;;;;;;3.47;2.43;;;21.50;99.90;;;;;;5033461;28;20172;-68
2023/07/12 06:35:13;;;;;;;6.43;2.60;;;21.50;99.90;;;;;;5034062;28;20541;-69
2023/07/12 06:37:39;;;;;;;5.53;3.80;;;21.70;99.90;;;;;;5034117;28;20705;-68
2023/07/12 06:40:05;;;;;;;9.40;2.37;;;21.80;99.90;;;;;;5033232;28;20172;-68
2023/07/12 06:42:33;;;;;;;2.30;2.17;;;21.60;99.90;;;;;;5032900;28;20186;-71
2023/07/12 06:44:58;;;;;;;3.13;1.40;;;21.50;99.90;;;;;;5033352;28;20415;-71
2023/07/12 06:47:24;;;;;;;1.77;1.67;;;21.40;99.90;;;;;;5033751;28;20834;-71
2023/07/12 06:49:50;;;;;;;2.53;2.33;;;21.40;99.90;;;;;;5033501;28;20184;-71
2023/07/12 06:52:15;;;;;;;2.17;2.03;;;21.40;99.90;;;;;;5033139;28;20610;-71
2023/07/12 06:54:41;;;;;;;1.63;1.20;;;21.30;99.90;;;;;;5015740;28;20631;-71
2023/07/12 06:57:07;;;;;;;2.53;2.37;;;21.30;99.90;;;;;;5033381;28;20254;-71
2023/07/12 06:59:33;;;;;;;2.40;2.20;;;21.50;99.90;;;;;;5015656;28;20174;-70
2023/07/12 07:01:59;;;;;;;1.60;1.50;;;21.80;99.90;;;;;;5033233;28;20174;-71
2023/07/12 07:04:25;;;;;;;5.00;2.60;;;22.10;99.90;;;;;;5033396;28;20381;-71
2023/07/12 07:06:51;;;;;;;1.53;1.43;;;22.30;99.90;;;;;;5033198;28;20319;-70
2023/07/12 07:09:17;;;;;;;2.00;1.90;;;22.60;99.90;;;;;;5033661;28;20409;-68
2023/07/12 07:11:42;;;;;;;1.30;1.20;;;22.80;99.90;;;;;;5033117;28;20401;-69
2023/07/12 07:14:08;;;;;;;2.53;2.33;;;22.80;99.90;;;;;;5033376;28;20202;-69
2023/07/12 07:16:34;;;;;;;1.40;1.30;;;22.90;99.90;;;;;;5032856;28;20226;-69
2023/07/12 07:18:59;;;;;;;1.50;1.40;;;22.80;99.90;;;;;;5032442;28;20189;-69
2023/07/12 07:21:25;;;;;;;1.13;1.03;;;22.90;99.90;;;;;;5032834;28;20198;-69
2023/07/12 07:23:51;;;;;;;3.70;2.30;;;23.10;99.90;;;;;;5033482;28;20199;-69
2023/07/12 07:26:17;;;;;;;2.37;1.87;;;23.40;99.90;;;;;;5033145;28;20266;-69
2023/07/12 07:28:43;;;;;;;2.93;2.27;;;23.50;99.90;;;;;;5033242;28;20952;-69
2023/07/12 07:31:09;;;;;;;1.53;1.20;;;23.70;99.90;;;;;;5033056;28;20175;-69
2023/07/12 07:33:37;;;;;;;1.93;1.83;;;23.90;99.90;;;;;;5033551;28;20416;-69
2023/07/12 07:36:05;;;;;;;1.87;1.67;;;24.10;99.90;;;;;;5033362;28;20544;-69
2023/07/12 07:38:31;;;;;;;1.23;1.13;;;24.20;99.90;;;;;;5032968;28;20398;-69
2023/07/12 07:40:57;;;;;;;2.03;1.90;;;24.50;99.90;;;;;;5032716;28;20388;-69
2023/07/12 07:43:23;;;;;;;1.53;1.47;;;25.00;99.90;;;;;;5032700;28;20171;-69
2023/07/12 07:45:48;;;;;;;2.00;1.90;;;25.30;99.90;;;;;;5031477;28;20198;-69
2023/07/12 07:48:15;;;;;;;1.50;1.40;;;25.30;99.90;;;;;;5031328;28;20888;-69
2023/07/12 07:50:41;;;;;;;3.33;1.97;;;25.20;99.30;;;;;;5032094;28;20206;-69
2023/07/12 07:53:07;;;;;;;1.60;1.40;;;25.20;99.50;;;;;;5036428;28;20406;-69
2023/07/12 07:55:33;;;;;;;2.70;2.20;;;25.20;99.90;;;;;;5036458;28;20762;-69
2023/07/12 07:57:59;;;;;;;1.43;1.33;;;25.00;99.90;;;;;;5036763;28;20409;-69
2023/07/12 08:00:25;;;;;;;1.90;1.80;;;25.00;99.90;;;;;;5036472;28;20534;-69
2023/07/12 08:02:52;;;;;;;1.60;1.50;;;24.90;99.90;;;;;;5036310;28;20199;-69
2023/07/12 08:05:18;;;;;;;1.93;1.83;;;24.70;99.90;;;;;;5036481;28;20171;-69
2023/07/12 08:07:46;;;;;;;1.87;1.77;;;24.40;99.80;;;;;;5036277;28;20433;-69
2023/07/12 08:10:15;;;;;;;1.30;1.20;;;24.20;99.90;;;;;;5036337;28;20173;-69
2023/07/12 08:12:41;;;;;;;1.30;1.20;;;24.10;99.90;;;;;;5036248;28;20384;-69
2023/07/12 08:15:07;;;;;;;1.53;1.43;;;24.10;99.90;;;;;;5035763;28;20432;-69
2023/07/12 08:17:33;;;;;;;1.90;1.30;;;24.20;99.90;;;;;;5035881;28;20245;-69
2023/07/12 08:19:59;;;;;;;3.53;2.50;;;24.50;99.90;;;;;;5036627;28;20409;-70
2023/07/12 08:22:25;;;;;;;2.23;2.10;;;25.20;99.90;;;;;;5035304;28;20368;-70
2023/07/12 08:24:52;;;;;;;1.33;1.23;;;26.20;98.50;;;;;;5035500;28;20769;-70
2023/07/12 08:27:18;;;;;;;2.70;1.43;;;27.20;97.30;;;;;;5018005;28;20944;-71
2023/07/12 08:29:44;;;;;;;1.53;1.43;;;27.60;95.40;;;;;;5035896;28;20405;-71
2023/07/12 08:32:11;;;;;;;1.77;1.67;;;27.70;95.20;;;;;;5035538;28;20401;-70
2023/07/12 08:34:37;;;;;;;1.10;0.90;;;27.50;93.80;;;;;;5035840;28;20462;-70
2023/07/12 08:37:03;;;;;;;3.47;1.67;;;27.30;95.70;;;;;;5017712;28;20538;-70
2023/07/12 08:39:28;;;;;;;1.40;1.27;;;26.80;95.10;;;;;;5035642;28;20369;-70
2023/07/12 08:41:54;;;;;;;1.63;1.20;;;26.40;94.90;;;;;;5035440;28;20489;-71
2023/07/12 08:44:22;;;;;;;1.73;1.07;;;26.20;96.10;;;;;;5035683;28;20167;-70
2023/07/12 08:47:13;;;;;;;0.90;0.90;;;26.20;97.50;;;;;;5035549;28;20408;-70
2023/07/12 08:49:39;;;;;;;1.93;1.73;;;26.00;95.00;;;;;;5035404;28;20410;-70
2023/07/12 08:52:15;;;;;;;1.77;1.37;;;26.00;96.80;;;;;;5035286;28;20412;-71
2023/07/12 08:54:41;;;;;;;2.30;1.10;;;26.00;95.90;;;;;;5035506;28;20174;-71
2023/07/12 08:57:21;;;;;;;1.07;0.97;;;25.90;97.40;;;;;;5035246;28;20440;-70
2023/07/12 09:00:10;;;;;;;1.03;0.83;;;26.40;96.40;;;;;;5035227;28;20170;-70
2023/07/12 09:02:36;;;;;;;2.00;1.27;;;28.00;94.10;;;;;;5034958;28;20434;-70
2023/07/12 09:05:19;;;;;;;1.73;1.63;;;30.00;92.40;;;;;;5035243;28;20893;-71
2023/07/12 09:07:55;;;;;;;2.00;1.90;;;32.00;89.50;;;;;;5034844;28;20425;-70
2023/07/12 09:10:41;;;;;;;1.33;1.23;;;32.90;80.50;;;;;;5034756;28;20425;-71
2023/07/12 09:13:11;;;;;;;1.43;0.83;;;33.30;79.90;;;;;;5034879;28;20405;-72
2023/07/12 09:15:47;;;;;;;1.00;0.90;;;33.50;75.50;;;;;;5034818;28;20803;-71
2023/07/12 09:18:34;;;;;;;1.33;1.23;;;33.50;72.20;;;;;;5034787;28;20508;-71
2023/07/12 09:21:10;;;;;;;1.67;1.03;;;34.10;70.20;;;;;;5034834;28;20462;-72
2023/07/12 09:23:40;;;;;;;1.60;1.27;;;34.10;66.30;;;;;;5035016;28;20401;-72
2023/07/12 09:26:30;;;;;;;0.67;0.67;;;33.40;69.00;;;;;;5034712;28;20433;-71
2023/07/12 09:29:21;;;;;;;1.33;1.23;;;32.10;73.90;;;;;;5033947;28;20409;-71
2023/07/12 09:31:47;;;;;;;1.83;1.57;;;31.20;76.10;;;;;;5023205;28;20418;-70
2023/07/12 09:34:22;;;;;;;1.17;0.90;;;30.60;75.50;;;;;;5034688;28;20402;-71
2023/07/12 09:36:59;;;;;;;0.90;0.90;;;30.00;75.10;;;;;;5034623;28;20514;-71
2023/07/12 09:39:28;;;;;;;0.87;0.70;;;30.00;77.50;;;;;;5034692;28;20552;-71
2023/07/12 09:41:56;;;;;;;1.57;1.20;;;29.80;76.10;;;;;;5034239;28;20885;-70
2023/07/12 09:44:22;;;;;;;1.73;1.00;;;29.80;78.50;;;;;;5034430;28;20896;-71
2023/07/12 09:46:48;;;;;;;1.10;1.00;;;29.80;77.90;;;;;;5034244;28;20421;-71
2023/07/12 09:49:15;;;;;;;1.23;1.13;;;29.60;81.00;;;;;;5034244;28;20194;-71
2023/07/12 09:52:08;;;;;;;0.90;0.90;;;29.50;78.00;;;;;;5034168;28;20167;-70
2023/07/12 09:54:43;;;;;;;1.47;1.30;;;29.40;83.40;;;;;;5034338;28;20488;-71
2023/07/12 09:57:34;;;;;;;3.27;1.13;;;29.10;83.30;;;;;;5034019;28;20460;-71
2023/07/12 10:00:23;;;;;;;1.20;1.10;;;28.50;85.50;;;;;;5034068;28;20397;-70
2023/07/12 10:03:21;;;;;;;1.80;1.57;;;27.20;86.90;;;;;;5033835;28;20447;-71
2023/07/12 10:06:20;;;;;;;1.60;1.50;;;27.30;97.90;;;;;;5034194;28;20413;-70
2023/07/12 10:08:53;;;;;;;1.27;1.17;;;27.10;90.40;;;;;;5034019;28;20501;-70
2023/07/12 10:11:35;;;;;;;2.30;1.00;;;27.90;89.20;;;;;;5033799;28;20417;-71
2023/07/12 10:14:07;;;;;;;1.53;1.10;;;28.60;87.10;;;;;;5033451;28;20398;-71
2023/07/12 10:16:40;;;;;;;1.30;1.20;;;28.90;87.90;;;;;;5033570;28;20457;-71
2023/07/12 10:19:28;;;;;;;1.73;1.37;;;28.90;88.50;;;;;;5033614;28;20512;-71
2023/07/12 10:22:00;;;;;;;1.00;1.00;;;28.80;87.60;;;;;;5033792;28;20877;-70
2023/07/12 10:24:39;;;;;;;1.37;1.27;;;29.00;86.70;;;;;;5033909;28;20493;-71
2023/07/12 10:27:24;;;;;;;0.93;0.93;;;29.50;88.30;;;;;;5033522;28;20440;-71
2023/07/12 10:30:14;;;;;;;2.90;1.87;;;29.60;83.40;;;;;;5033610;28;20899;-71
2023/07/12 10:32:52;;;;;;;1.80;1.67;;;29.70;84.40;;;;;;5033569;28;20401;-71
2023/07/12 10:35:31;;;;;;;2.27;1.80;;;29.40;85.00;;;;;;5033699;28;20491;-70
2023/07/12 10:38:04;;;;;;;1.57;1.47;;;29.70;89.20;;;;;;5033504;28;20425;-71
2023/07/12 10:40:38;;;;;;;1.33;1.23;;;30.00;84.10;;;;;;5033514;28;20398;-70
2023/07/12 10:43:13;;;;;;;2.40;1.50;;;29.40;82.70;;;;;;5033445;28;20408;-70
2023/07/12 10:45:39;;;;;;;3.23;2.00;;;29.00;91.10;;;;;;5033498;28;20433;-70
2023/07/12 10:48:07;;;;;;;1.67;1.57;;;29.30;85.90;;;;;;5032679;28;20467;-71
2023/07/12 10:50:46;;;;;;;2.40;1.60;;;29.30;85.40;;;;;;5032974;28;20437;-71
2023/07/12 10:53:16;;;;;;;1.53;1.43;;;29.70;86.50;;;;;;5033455;28;20479;-70
2023/07/12 10:55:43;;;;;;;1.40;1.27;;;30.80;88.80;;;;;;5033502;28;20450;-70
2023/07/12 10:58:21;;;;;;;1.77;1.50;;;30.60;82.60;;;;;;5032565;28;20406;-70
2023/07/12 11:00:55;;;;;;;2.00;1.90;;;30.90;80.60;;;;;;5033086;28;20409;-70
2023/07/12 11:03:33;;;;;;;0.90;0.90;;;30.90;80.20;;;;;;5033275;28;20861;-70
2023/07/12 11:06:23;;;;;;;1.90;1.70;;;30.40;77.90;;;;;;5033221;28;20440;-70
2023/07/12 11:09:16;;;;;;;1.20;1.17;;;30.00;82.60;;;;;;5033147;28;20766;-69
2023/07/12 11:11:57;;;;;;;2.40;1.60;;;29.10;85.30;;;;;;5032742;28;20422;-70
2023/07/12 11:14:38;;;;;;;4.63;2.03;;;28.10;90.00;;;;;;5033338;28;20816;-70
2023/07/12 11:17:06;;;;;;;2.73;1.73;;;28.00;89.90;;;;;;5033129;28;20465;-70
2023/07/12 11:19:42;;;;;;;16.93;2.10;;;28.50;88.50;;;;;;5032993;28;20425;-70
2023/07/12 11:22:11;;;;;;;1.60;1.50;;;28.90;85.00;;;;;;5033090;28;20412;-70
2023/07/12 11:24:47;;;;;;;1.57;1.20;;;29.20;84.60;;;;;;5033268;28;20496;-70
2023/07/12 11:27:27;;;;;;;1.47;1.37;;;29.10;84.00;;;;;;5035325;28;20425;-70
2023/07/12 11:29:56;;;;;;;1.40;1.27;;;28.80;82.50;;;;;;5036868;28;20409;-70
2023/07/12 11:32:32;;;;;;;2.20;1.43;;;28.60;84.20;;;;;;5036860;28;20412;-70
2023/07/12 11:35:19;;;;;;;1.03;0.90;;;28.70;87.30;;;;;;5037023;28;20401;-70
2023/07/12 11:37:49;;;;;;;1.40;1.30;;;28.70;85.50;;;;;;5036764;28;20421;-70
2023/07/12 11:40:19;;;;;;;1.90;1.80;;;28.70;84.50;;;;;;5036761;28;20497;-70
2023/07/12 11:42:44;;;;;;;1.90;1.53;;;28.90;88.40;;;;;;5036558;28;20484;-70
2023/07/12 11:45:13;;;;;;;3.47;1.57;;;29.10;85.20;;;;;;5036663;28;20485;-70
2023/07/12 11:47:42;;;;;;;3.00;2.50;;;29.20;83.60;;;;;;5018764;28;20198;-70
2023/07/12 11:50:10;;;;;;;2.73;2.23;;;29.10;83.30;;;;;;5036728;28;20468;-70
2023/07/12 11:52:36;;;;;;;2.87;1.73;;;29.00;84.60;;;;;;5036290;28;20451;-70
2023/07/12 11:55:05;;;;;;;1.23;1.10;;;29.00;84.80;;;;;;5036311;28;20405;-70
2023/07/12 11:57:39;;;;;;;2.47;2.27;;;28.70;88.10;;;;;;5036387;28;20512;-70
2023/07/12 12:00:30;;;;;;;1.47;1.37;;;27.80;84.20;;;;;;5036618;28;20401;-70
2023/07/12 12:02:58;;;;;;;1.60;1.50;;;27.60;89.60;;;;;;5033060;28;20837;-70
2023/07/12 12:05:33;;;;;;;1.40;1.30;;;27.40;88.70;;;;;;5036259;28;20401;-70
2023/07/12 12:07:59;;;;;;;2.23;1.87;;;27.50;88.40;;;;;;5036195;28;20404;-70
2023/07/12 12:10:35;;;;;;;1.47;1.37;;;27.10;90.10;;;;;;5036391;28;20470;-70
2023/07/12 12:13:13;;;;;;;2.27;1.53;;;26.90;90.70;;;;;;5036223;28;20401;-70
2023/07/12 12:15:47;;;;;;;1.37;1.27;;;26.90;94.30;;;;;;5036016;28;20463;-69
2023/07/12 12:18:18;;;;;;;1.47;1.37;;;27.20;91.20;;;;;;5018447;28;20802;-70
2023/07/12 12:20:56;;;;;;;1.80;1.70;;;27.60;89.80;;;;;;5035887;28;20403;-70
2023/07/12 12:23:30;;;;;;;5.43;1.90;;;28.10;89.10;;;;;;5036125;28;20893;-70
2023/07/12 12:26:01;;;;;;;1.60;1.50;;;28.20;89.40;;;;;;5035898;28;20436;-69
2023/07/12 12:28:28;;;;;;;1.40;1.20;;;28.10;87.80;;;;;;5036142;28;20410;-70
2023/07/12 12:31:05;;;;;;;2.57;1.83;;;27.90;86.20;;;;;;5035685;28;20761;-69
2023/07/12 12:33:33;;;;;;;2.17;1.97;;;27.90;86.40;;;;;;5036065;28;20900;-70
2023/07/12 12:36:02;;;;;;;1.00;1.00;;;28.10;89.20;;;;;;5035732;28;20548;-70
2023/07/12 12:38:36;;;;;;;1.17;1.13;;;28.40;86.00;;;;;;5035139;28;20406;-70
2023/07/12 12:41:13;;;;;;;1.60;1.50;;;28.50;88.80;;;;;;5035464;28;20401;-70
2023/07/12 12:43:57;;;;;;;1.40;1.23;;;28.60;86.60;;;;;;5035843;28;20509;-70
2023/07/12 12:46:23;;;;;;;3.00;1.63;;;28.50;89.20;;;;;;5035514;28;20448;-70
2023/07/12 12:48:52;;;;;;;2.47;2.27;;;28.60;86.60;;;;;;5035471;28;20897;-70
2023/07/12 12:51:18;;;;;;;1.80;1.63;;;28.60;85.00;;;;;;5035353;28;20174;-70
2023/07/12 12:53:44;;;;;;;7.90;1.50;;;28.30;85.00;;;;;;5035366;28;20410;-70
2023/07/12 12:56:14;;;;;;;5.47;2.07;;;28.00;86.80;;;;;;5035302;28;20469;-70
2023/07/12 12:58:41;;;;;;;1.90;1.80;;;27.70;86.40;;;;;;5035501;28;20389;-69
2023/07/12 13:01:11;;;;;;;1.67;1.17;;;27.60;89.30;;;;;;5035167;28;20458;-70
2023/07/12 13:03:37;;;;;;;2.43;1.90;;;27.50;88.70;;;;;;5035761;28;20488;-70